Time;durP1;ratioP1;P1;durP2;ratioP2;P2;SDS_P1;SDS_P2;PMS_P1;PMS_P2;Temp;Humidity;BMP_temperature;BMP_pressure;BME280_temperature;BME280_humidity;BME280_pressure;Samples;Min_cycle;Max_cycle;Signal;HPM_P1;HPM_P2
2023/09/16 00:01:52;;;;;;;13.52;12.43;;;;;;;;;;5036216;28;20450;-80
2023/09/16 00:04:18;;;;;;;13.20;12.15;;;;;;;;;;5036342;28;20437;-80
2023/09/16 00:06:44;;;;;;;13.60;12.50;;;;;;;;;;5035971;28;20386;-80
2023/09/16 00:09:10;;;;;;;14.38;13.18;;;;;;;;;;5052539;28;20774;-80
2023/09/16 00:11:36;;;;;;;14.10;12.90;;;;;;;;;;5011237;28;20391;-80
2023/09/16 00:14:02;;;;;;;13.35;12.35;;;;;;;;;;5036260;28;20395;-80
2023/09/16 00:16:29;;;;;;;14.20;13.00;;;;;;;;;;5036424;28;20503;-80
2023/09/16 00:18:55;;;;;;;13.65;12.55;;;;;;;;;;5051950;28;20449;-81
2023/09/16 00:21:22;;;;;;;14.63;13.30;;;;;;;;;;5042623;28;20393;-80
2023/09/16 00:23:48;;;;;;;13.88;12.68;;;;;;;;;;5043295;28;20462;-80
2023/09/16 00:26:15;;;;;;;14.32;13.13;;;;;;;;;;5051344;28;20379;-80
2023/09/16 00:28:41;;;;;;;13.48;12.38;;;;;;;;;;5041462;28;20413;-80
2023/09/16 00:31:07;;;;;;;13.40;12.32;;;;;;;;;;5018341;28;20751;-80
2023/09/16 00:33:34;;;;;;;13.57;12.38;;;;;;;;;;5035715;28;20759;-80
2023/09/16 00:36:00;;;;;;;13.82;12.73;;;;;;;;;;5051184;28;20399;-80
2023/09/16 00:38:26;;;;;;;13.40;12.27;;;;;;;;;;5051715;28;20394;-80
2023/09/16 00:40:52;;;;;;;13.37;12.27;;;;;;;;;;5035979;28;20392;-80
2023/09/16 00:43:18;;;;;;;14.05;12.85;;;;;;;;;;5054373;28;20805;-80
2023/09/16 00:45:44;;;;;;;13.85;12.65;;;;;;;;;;5048869;28;20387;-80
2023/09/16 00:48:11;;;;;;;13.93;12.73;;;;;;;;;;5049708;28;20377;-81
2023/09/16 00:50:38;;;;;;;13.90;12.77;;;;;;;;;;5049704;28;20387;-80
2023/09/16 00:53:04;;;;;;;14.70;13.33;;;;;;;;;;5035757;28;20425;-80
2023/09/16 00:55:30;;;;;;;15.48;14.10;;;;;;;;;;5049579;28;20453;-80
2023/09/16 00:57:57;;;;;;;15.05;13.68;;;;;;;;;;5035255;28;20382;-80
2023/09/16 01:00:26;;;;;;;14.38;13.18;;;;;;;;;;5051264;28;20385;-79
2023/09/16 01:02:53;;;;;;;14.57;13.38;;;;;;;;;;5029020;28;20893;-79
2023/09/16 01:05:19;;;;;;;15.45;14.15;;;;;;;;;;5035338;28;20387;-79
2023/09/16 01:07:46;;;;;;;13.73;12.63;;;;;;;;;;5050844;28;20399;-79
2023/09/16 01:10:13;;;;;;;15.27;13.87;;;;;;;;;;5035951;28;20418;-79
2023/09/16 01:12:39;;;;;;;13.95;12.70;;;;;;;;;;5049448;28;20386;-80
2023/09/16 01:15:06;;;;;;;13.82;12.70;;;;;;;;;;5049545;28;20808;-79
2023/09/16 01:17:41;;;;;;;13.70;12.60;;;;;;;;;;5016641;28;20387;-79
2023/09/16 01:20:10;;;;;;;14.70;13.40;;;;;;;;;;5035269;28;20845;-79
2023/09/16 01:22:39;;;;;;;14.20;13.00;;;;;;;;;;5035447;28;20422;-79
2023/09/16 01:25:06;;;;;;;14.60;13.30;;;;;;;;;;5022060;28;20385;-79
2023/09/16 01:27:32;;;;;;;13.75;12.65;;;;;;;;;;5034320;28;20830;-80
2023/09/16 01:29:59;;;;;;;14.73;13.53;;;;;;;;;;5017849;28;20490;-79
2023/09/16 01:32:28;;;;;;;14.45;13.23;;;;;;;;;;5034602;28;20391;-78
2023/09/16 01:34:54;;;;;;;15.57;14.27;;;;;;;;;;5016188;28;20428;-79
2023/09/16 01:37:22;;;;;;;14.07;12.98;;;;;;;;;;5035031;28;20840;-79
2023/09/16 01:39:56;;;;;;;14.52;13.38;;;;;;;;;;5034611;28;20391;-79
2023/09/16 01:42:22;;;;;;;15.32;14.10;;;;;;;;;;5017150;28;20410;-79
2023/09/16 01:44:49;;;;;;;14.18;13.07;;;;;;;;;;5016942;28;20402;-79
2023/09/16 01:47:15;;;;;;;13.75;12.63;;;;;;;;;;5034918;28;20414;-79
2023/09/16 01:49:41;;;;;;;14.63;13.35;;;;;;;;;;5034494;28;20741;-79
2023/09/16 01:52:08;;;;;;;15.45;14.15;;;;;;;;;;5034189;28;20864;-80
2023/09/16 01:54:34;;;;;;;14.95;13.73;;;;;;;;;;5031762;28;20415;-79
2023/09/16 01:57:00;;;;;;;15.10;13.80;;;;;;;;;;5031831;28;20841;-79
2023/09/16 01:59:26;;;;;;;14.88;13.48;;;;;;;;;;5034099;28;20425;-79
2023/09/16 02:01:52;;;;;;;13.30;12.13;;;;;;;;;;5014662;28;20391;-79
2023/09/16 02:04:18;;;;;;;14.68;13.38;;;;;;;;;;5034564;28;20733;-79
2023/09/16 02:06:46;;;;;;;13.90;12.60;;;;;;;;;;5033518;28;20383;-79
2023/09/16 02:09:12;;;;;;;14.45;13.23;;;;;;;;;;5040914;28;20393;-79
2023/09/16 02:11:41;;;;;;;14.73;13.52;;;;;;;;;;5030329;28;20395;-81
2023/09/16 02:14:10;;;;;;;16.20;14.77;;;;;;;;;;5026916;28;20410;-80
2023/09/16 02:16:37;;;;;;;15.23;13.93;;;;;;;;;;5029434;28;20490;-80
2023/09/16 02:19:03;;;;;;;13.70;12.57;;;;;;;;;;5026178;28;20399;-80
2023/09/16 02:21:29;;;;;;;14.25;13.05;;;;;;;;;;5029827;28;20729;-79
2023/09/16 02:23:55;;;;;;;13.75;12.65;;;;;;;;;;5006765;28;20411;-80
2023/09/16 02:26:21;;;;;;;14.05;12.85;;;;;;;;;;5028841;28;20512;-80
2023/09/16 02:28:47;;;;;;;13.85;12.55;;;;;;;;;;5035455;28;20399;-80
2023/09/16 02:31:13;;;;;;;13.43;12.33;;;;;;;;;;5030150;28;20761;-80
2023/09/16 02:33:39;;;;;;;13.00;12.00;;;;;;;;;;5035724;28;20379;-80
2023/09/16 02:36:05;;;;;;;13.25;12.18;;;;;;;;;;5033444;28;21057;-80
2023/09/16 02:38:31;;;;;;;13.10;12.00;;;;;;;;;;5048620;28;20711;-80
2023/09/16 02:40:57;;;;;;;13.30;12.10;;;;;;;;;;5053317;28;20388;-80
2023/09/16 02:43:23;;;;;;;12.98;11.80;;;;;;;;;;5035635;28;20415;-80
2023/09/16 02:45:49;;;;;;;13.90;12.68;;;;;;;;;;5039886;28;20381;-81
2023/09/16 02:48:18;;;;;;;13.38;12.30;;;;;;;;;;5053448;28;20924;-81
2023/09/16 02:50:46;;;;;;;12.93;11.73;;;;;;;;;;5036297;28;20779;-80
2023/09/16 02:53:11;;;;;;;13.30;12.27;;;;;;;;;;5043810;28;20393;-80
2023/09/16 02:55:37;;;;;;;13.27;12.13;;;;;;;;;;5037486;28;20448;-80
2023/09/16 02:58:04;;;;;;;12.95;11.85;;;;;;;;;;5034047;28;20399;-80
2023/09/16 03:00:30;;;;;;;13.80;12.60;;;;;;;;;;5033721;28;20933;-81
2023/09/16 03:02:56;;;;;;;12.07;11.18;;;;;;;;;;5033370;28;20422;-80
2023/09/16 03:05:22;;;;;;;13.30;12.13;;;;;;;;;;5033609;28;20880;-80
2023/09/16 03:07:49;;;;;;;12.93;11.85;;;;;;;;;;5033495;28;20398;-80
2023/09/16 03:10:15;;;;;;;12.27;11.18;;;;;;;;;;5032911;28;20524;-80
2023/09/16 03:12:41;;;;;;;13.15;12.18;;;;;;;;;;5033202;28;20441;-80
2023/09/16 03:15:07;;;;;;;12.52;11.52;;;;;;;;;;5033344;28;20403;-80
2023/09/16 03:17:33;;;;;;;12.63;11.63;;;;;;;;;;5033636;28;20418;-80
2023/09/16 03:19:59;;;;;;;13.52;12.43;;;;;;;;;;5053216;28;20397;-80
2023/09/16 03:22:25;;;;;;;13.15;12.15;;;;;;;;;;5052181;28;20409;-80
2023/09/16 03:24:51;;;;;;;12.30;11.30;;;;;;;;;;5036210;28;20468;-80
2023/09/16 03:27:17;;;;;;;13.35;12.15;;;;;;;;;;5033221;28;20394;-80
2023/09/16 03:29:43;;;;;;;12.13;11.13;;;;;;;;;;5047209;28;20435;-80
2023/09/16 03:32:09;;;;;;;12.45;11.35;;;;;;;;;;5032873;28;20386;-80
2023/09/16 03:34:35;;;;;;;12.03;11.10;;;;;;;;;;5034896;28;20634;-80
2023/09/16 03:37:01;;;;;;;11.93;10.93;;;;;;;;;;5022841;28;20394;-80
2023/09/16 03:39:27;;;;;;;12.13;11.18;;;;;;;;;;5036463;28;20375;-80
2023/09/16 03:41:55;;;;;;;11.73;10.80;;;;;;;;;;5035801;28;20387;-80
2023/09/16 03:44:21;;;;;;;11.60;10.65;;;;;;;;;;5036004;28;20390;-80
2023/09/16 03:46:49;;;;;;;11.95;10.95;;;;;;;;;;5036022;28;20379;-80
2023/09/16 03:49:15;;;;;;;11.73;10.82;;;;;;;;;;5036977;28;20469;-80
2023/09/16 03:51:41;;;;;;;11.63;10.63;;;;;;;;;;5048335;28;20847;-80
2023/09/16 03:54:07;;;;;;;11.73;10.82;;;;;;;;;;5034247;28;20829;-80
2023/09/16 03:56:34;;;;;;;11.45;10.50;;;;;;;;;;5036266;28;20383;-80
2023/09/16 03:59:00;;;;;;;11.65;10.75;;;;;;;;;;5036357;28;20452;-80
2023/09/16 04:01:26;;;;;;;11.20;10.32;;;;;;;;;;5047437;28;20905;-80
2023/09/16 04:03:54;;;;;;;12.33;11.30;;;;;;;;;;5038680;28;20537;-80
2023/09/16 04:06:20;;;;;;;11.57;10.65;;;;;;;;;;5036076;28;20443;-80
2023/09/16 04:08:46;;;;;;;11.60;10.70;;;;;;;;;;5035411;28;20864;-80
2023/09/16 04:11:13;;;;;;;12.00;11.00;;;;;;;;;;5036436;28;20387;-80
2023/09/16 04:13:39;;;;;;;11.75;10.75;;;;;;;;;;5045883;28;20390;-80
2023/09/16 04:16:05;;;;;;;11.80;10.80;;;;;;;;;;5036132;28;20725;-80
2023/09/16 04:18:31;;;;;;;10.77;9.98;;;;;;;;;;5035534;28;20478;-80
2023/09/16 04:20:57;;;;;;;11.35;10.45;;;;;;;;;;5035696;28;20391;-80
2023/09/16 04:23:23;;;;;;;11.80;10.77;;;;;;;;;;5049713;28;20438;-80
2023/09/16 04:25:56;;;;;;;10.40;9.60;;;;;;;;;;5035909;28;20394;-80
2023/09/16 04:28:22;;;;;;;11.85;10.73;;;;;;;;;;5036213;28;20383;-80
2023/09/16 04:30:49;;;;;;;11.93;11.00;;;;;;;;;;5035720;28;20479;-80
2023/09/16 04:33:15;;;;;;;13.55;12.43;;;;;;;;;;5036266;28;20470;-80
2023/09/16 04:35:48;;;;;;;10.77;9.93;;;;;;;;;;5044288;28;20392;-80
2023/09/16 04:38:15;;;;;;;11.70;10.70;;;;;;;;;;5041687;28;20489;-80
2023/09/16 04:40:42;;;;;;;11.70;10.70;;;;;;;;;;5047527;28;20397;-80
2023/09/16 04:43:08;;;;;;;10.82;9.98;;;;;;;;;;5035426;28;20423;-80
2023/09/16 04:45:34;;;;;;;11.10;10.20;;;;;;;;;;5034393;28;20402;-80
2023/09/16 04:48:04;;;;;;;10.82;9.93;;;;;;;;;;5035403;28;20861;-80
2023/09/16 04:50:31;;;;;;;11.00;10.10;;;;;;;;;;5035558;28;20383;-80
2023/09/16 04:52:58;;;;;;;11.13;10.13;;;;;;;;;;5035198;28;20459;-81
2023/09/16 04:55:24;;;;;;;11.32;10.43;;;;;;;;;;5038586;28;20381;-80
2023/09/16 04:57:50;;;;;;;11.18;10.25;;;;;;;;;;5046471;28;20386;-80
2023/09/16 05:00:17;;;;;;;11.23;10.32;;;;;;;;;;5035767;28;20395;-80
2023/09/16 05:02:48;;;;;;;11.45;10.50;;;;;;;;;;5042295;28;20405;-80
2023/09/16 05:05:14;;;;;;;10.93;10.05;;;;;;;;;;5040609;28;20418;-80
2023/09/16 05:07:40;;;;;;;11.33;10.43;;;;;;;;;;5034786;28;20383;-80
2023/09/16 05:10:06;;;;;;;10.95;9.98;;;;;;;;;;5047315;28;20447;-80
2023/09/16 05:12:32;;;;;;;10.90;10.00;;;;;;;;;;5036688;28;20387;-80
2023/09/16 05:14:58;;;;;;;12.10;11.10;;;;;;;;;;5035137;28;20398;-80
2023/09/16 05:17:24;;;;;;;11.27;10.37;;;;;;;;;;5035107;28;20500;-80
2023/09/16 05:19:50;;;;;;;10.45;9.65;;;;;;;;;;5035349;28;20516;-80
2023/09/16 05:22:16;;;;;;;10.85;9.90;;;;;;;;;;5045585;28;20449;-80
2023/09/16 05:24:42;;;;;;;10.70;9.90;;;;;;;;;;5052264;28;20778;-80
2023/09/16 05:27:08;;;;;;;11.07;10.17;;;;;;;;;;5035094;28;20387;-81
2023/09/16 05:29:34;;;;;;;11.18;10.25;;;;;;;;;;5035009;28;20410;-80
2023/09/16 05:32:00;;;;;;;11.27;10.32;;;;;;;;;;5034594;28;20939;-80
2023/09/16 05:34:26;;;;;;;11.10;10.23;;;;;;;;;;5047380;28;20762;-80
2023/09/16 05:36:52;;;;;;;10.88;10.07;;;;;;;;;;5035568;28;20391;-80
2023/09/16 05:39:18;;;;;;;10.97;10.07;;;;;;;;;;5034719;28;20502;-80
2023/09/16 05:41:44;;;;;;;11.10;10.20;;;;;;;;;;5034780;28;20493;-81
2023/09/16 05:44:10;;;;;;;11.98;10.93;;;;;;;;;;5034977;28;20391;-80
2023/09/16 05:46:36;;;;;;;11.10;10.20;;;;;;;;;;5034561;28;20410;-81
2023/09/16 05:49:09;;;;;;;10.70;9.90;;;;;;;;;;5034896;28;20429;-80
2023/09/16 05:51:36;;;;;;;12.65;11.63;;;;;;;;;;5034887;28;20380;-80
2023/09/16 05:54:02;;;;;;;12.70;11.60;;;;;;;;;;5040758;28;20433;-80
2023/09/16 05:56:28;;;;;;;13.88;12.75;;;;;;;;;;5044792;28;20462;-80
2023/09/16 05:58:55;;;;;;;14.52;13.27;;;;;;;;;;5052768;28;20891;-80
2023/09/16 06:01:21;;;;;;;15.75;14.30;;;;;;;;;;5044282;28;20433;-80
2023/09/16 06:03:47;;;;;;;14.23;13.03;;;;;;;;;;5034957;28;20419;-80
2023/09/16 06:06:13;;;;;;;14.82;13.52;;;;;;;;;;5034998;28;20383;-81
2023/09/16 06:08:39;;;;;;;13.60;12.40;;;;;;;;;;5040097;28;20379;-80
2023/09/16 06:11:05;;;;;;;13.55;12.45;;;;;;;;;;5034732;28;20422;-80
2023/09/16 06:13:31;;;;;;;15.60;14.20;;;;;;;;;;5031017;28;20395;-80
2023/09/16 06:15:57;;;;;;;15.45;14.02;;;;;;;;;;5034436;28;20474;-80
2023/09/16 06:18:23;;;;;;;14.95;13.52;;;;;;;;;;5044764;28;20420;-80
2023/09/16 06:20:49;;;;;;;15.23;13.73;;;;;;;;;;5037691;28;20392;-80
2023/09/16 06:23:15;;;;;;;16.13;14.68;;;;;;;;;;5048125;28;20444;-80
2023/09/16 06:25:41;;;;;;;16.83;15.33;;;;;;;;;;5033936;28;20401;-80
2023/09/16 06:28:08;;;;;;;14.90;13.50;;;;;;;;;;5034151;28;20813;-81
2023/09/16 06:30:33;;;;;;;16.15;14.65;;;;;;;;;;5033997;28;20383;-80
2023/09/16 06:33:02;;;;;;;21.77;19.15;;;;;;;;;;5034754;28;20397;-80
2023/09/16 06:35:28;;;;;;;21.67;19.27;;;;;;;;;;5054342;28;20948;-81
2023/09/16 06:37:54;;;;;;;24.15;21.20;;;;;;;;;;5023669;28;20403;-81
2023/09/16 06:40:20;;;;;;;23.83;20.70;;;;;;;;;;5034329;28;20383;-80
2023/09/16 06:42:46;;;;;;;24.85;20.33;;;;;;;;;;5034571;28;20419;-82
2023/09/16 06:45:13;;;;;;;26.33;21.02;;;;;;;;;;5051524;28;20754;-81
2023/09/16 06:47:39;;;;;;;28.80;22.30;;;;;;;;;;5045236;28;20399;-82
2023/09/16 06:50:06;;;;;;;30.10;22.60;;;;;;;;;;5035478;28;20462;-82
2023/09/16 06:52:32;;;;;;;28.23;22.17;;;;;;;;;;5046225;28;20837;-81
2023/09/16 06:54:58;;;;;;;29.17;23.80;;;;;;;;;;5047909;28;20393;-83
2023/09/16 06:57:24;;;;;;;31.85;25.50;;;;;;;;;;5054241;28;20739;-80
2023/09/16 06:59:50;;;;;;;30.77;23.90;;;;;;;;;;5053754;28;20431;-81
2023/09/16 07:02:16;;;;;;;31.17;24.35;;;;;;;;;;5050179;28;20480;-80
2023/09/16 07:04:42;;;;;;;33.33;26.08;;;;;;;;;;5034406;28;20387;-81
2023/09/16 07:07:09;;;;;;;31.50;25.40;;;;;;;;;;5033281;28;20417;-80
2023/09/16 07:09:35;;;;;;;36.75;26.95;;;;;;;;;;5032612;28;20402;-81
2023/09/16 07:12:01;;;;;;;34.75;26.15;;;;;;;;;;5033265;28;20398;-81
2023/09/16 07:14:27;;;;;;;35.58;26.70;;;;;;;;;;5046974;28;20391;-81
2023/09/16 07:16:53;;;;;;;33.58;26.02;;;;;;;;;;5033096;28;20375;-80
2023/09/16 07:19:19;;;;;;;36.07;26.77;;;;;;;;;;5033499;28;20468;-80
2023/09/16 07:21:45;;;;;;;34.20;26.23;;;;;;;;;;5039684;28;20388;-79
2023/09/16 07:24:11;;;;;;;38.55;28.15;;;;;;;;;;5043007;28;20409;-79
2023/09/16 07:26:37;;;;;;;38.42;27.75;;;;;;;;;;5049306;28;20387;-80
2023/09/16 07:29:03;;;;;;;37.97;27.63;;;;;;;;;;5047632;28;20462;-79
2023/09/16 07:31:29;;;;;;;41.15;27.77;;;;;;;;;;5038232;28;20393;-81
2023/09/16 07:33:55;;;;;;;36.55;26.40;;;;;;;;;;5053404;28;20768;-80
2023/09/16 07:36:21;;;;;;;34.28;25.92;;;;;;;;;;5034841;28;20422;-79
2023/09/16 07:38:47;;;;;;;33.95;26.27;;;;;;;;;;5033345;28;20379;-79
2023/09/16 07:41:13;;;;;;;40.33;28.42;;;;;;;;;;5044534;28;20394;-79
2023/09/16 07:43:39;;;;;;;38.73;27.47;;;;;;;;;;5053038;28;20417;-79
2023/09/16 07:46:05;;;;;;;40.60;28.67;;;;;;;;;;5046164;28;20771;-83
2023/09/16 07:48:32;;;;;;;33.50;26.58;;;;;;;;;;5047579;28;20409;-82
2023/09/16 07:50:58;;;;;;;31.63;25.95;;;;;;;;;;5053877;28;20385;-82
2023/09/16 07:53:24;;;;;;;39.35;28.48;;;;;;;;;;5049923;28;20390;-83
2023/09/16 07:55:50;;;;;;;38.30;28.55;;;;;;;;;;5042791;28;20423;-83
2023/09/16 07:58:16;;;;;;;34.40;27.07;;;;;;;;;;5050725;28;20399;-83
2023/09/16 08:00:42;;;;;;;42.40;31.27;;;;;;;;;;5048829;28;20390;-83
2023/09/16 08:03:08;;;;;;;37.53;28.40;;;;;;;;;;5035696;28;20423;-83
2023/09/16 08:05:34;;;;;;;41.65;30.48;;;;;;;;;;5051083;28;20888;-83
2023/09/16 08:08:00;;;;;;;39.92;29.90;;;;;;;;;;5035790;28;20422;-83
2023/09/16 08:10:26;;;;;;;42.17;29.70;;;;;;;;;;5035650;28;20466;-83
2023/09/16 08:12:52;;;;;;;39.03;30.20;;;;;;;;;;5036382;28;20428;-84
2023/09/16 08:15:18;;;;;;;35.70;27.07;;;;;;;;;;5050323;28;20393;-83
2023/09/16 08:17:44;;;;;;;33.40;25.67;;;;;;;;;;5036132;28;20402;-83
2023/09/16 08:20:10;;;;;;;38.67;29.13;;;;;;;;;;5035684;28;20876;-83
2023/09/16 08:22:36;;;;;;;37.28;27.50;;;;;;;;;;5040153;28;20433;-83
2023/09/16 08:25:03;;;;;;;37.10;28.48;;;;;;;;;;5040787;28;20418;-83
2023/09/16 08:27:29;;;;;;;38.78;28.90;;;;;;;;;;5039025;28;20390;-83
2023/09/16 08:29:55;;;;;;;34.85;26.85;;;;;;;;;;5052984;28;20407;-83
2023/09/16 08:32:23;;;;;;;39.22;28.55;;;;;;;;;;5038733;28;20725;-83
2023/09/16 08:34:50;;;;;;;41.97;30.77;;;;;;;;;;5021437;28;20472;-83
2023/09/16 08:37:16;;;;;;;35.78;27.80;;;;;;;;;;5021760;28;20405;-83
2023/09/16 08:39:42;;;;;;;35.80;27.35;;;;;;;;;;5033216;28;20407;-83
2023/09/16 08:42:23;;;;;;;35.65;27.90;;;;;;;;;;5039171;28;20383;-83
2023/09/16 08:44:51;;;;;;;30.02;25.17;;;;;;;;;;5039114;28;20880;-83
2023/09/16 08:47:21;;;;;;;35.92;27.10;;;;;;;;;;5020432;28;20391;-83
2023/09/16 08:49:50;;;;;;;36.93;28.33;;;;;;;;;;5038770;28;20399;-83
2023/09/16 08:52:17;;;;;;;38.47;28.80;;;;;;;;;;5038639;28;20860;-83
2023/09/16 08:54:44;;;;;;;35.83;28.00;;;;;;;;;;5038387;28;20445;-83
2023/09/16 08:57:11;;;;;;;37.25;28.50;;;;;;;;;;5020972;28;20391;-84
2023/09/16 08:59:38;;;;;;;32.83;26.95;;;;;;;;;;5039064;28;20393;-83
2023/09/16 09:02:04;;;;;;;37.95;28.48;;;;;;;;;;5038574;28;20398;-83
2023/09/16 09:04:31;;;;;;;34.25;27.25;;;;;;;;;;5038847;28;20387;-83
2023/09/16 09:06:58;;;;;;;37.20;29.13;;;;;;;;;;5038736;28;20391;-83
2023/09/16 09:09:24;;;;;;;32.80;26.25;;;;;;;;;;5038854;28;20383;-83
2023/09/16 09:11:50;;;;;;;39.05;28.85;;;;;;;;;;5038381;28;20391;-83
2023/09/16 09:14:17;;;;;;;32.25;26.77;;;;;;;;;;5038451;28;20390;-83
2023/09/16 09:16:44;;;;;;;30.10;25.80;;;;;;;;;;5038617;28;20727;-83
2023/09/16 09:19:11;;;;;;;34.50;27.58;;;;;;;;;;5037832;28;20383;-83
2023/09/16 09:21:37;;;;;;;29.70;25.52;;;;;;;;;;5038200;28;20772;-83
2023/09/16 09:24:03;;;;;;;34.33;27.38;;;;;;;;;;5037642;28;20426;-83
2023/09/16 09:26:29;;;;;;;33.30;26.52;;;;;;;;;;5037980;28;20391;-83
2023/09/16 09:28:58;;;;;;;28.77;24.10;;;;;;;;;;5036790;28;20911;-83
2023/09/16 09:31:24;;;;;;;29.42;24.98;;;;;;;;;;5037616;28;20387;-83
2023/09/16 09:33:51;;;;;;;29.80;25.38;;;;;;;;;;5037321;28;20383;-83
2023/09/16 09:36:18;;;;;;;29.23;25.38;;;;;;;;;;5038547;28;20391;-84
2023/09/16 09:38:47;;;;;;;29.92;26.35;;;;;;;;;;5039173;28;20386;-83
2023/09/16 09:41:14;;;;;;;27.90;24.90;;;;;;;;;;5037520;28;20382;-84
2023/09/16 09:43:40;;;;;;;25.60;23.00;;;;;;;;;;5036226;28;20410;-83
2023/09/16 09:46:06;;;;;;;24.67;22.23;;;;;;;;;;5037872;28;20391;-83
2023/09/16 09:48:35;;;;;;;26.15;23.45;;;;;;;;;;5036958;28;20379;-83
2023/09/16 09:51:01;;;;;;;25.27;22.63;;;;;;;;;;5037353;28;20887;-83
2023/09/16 09:53:28;;;;;;;25.88;23.13;;;;;;;;;;5021026;28;20453;-84
2023/09/16 09:55:54;;;;;;;26.63;23.13;;;;;;;;;;5038425;28;20383;-84
2023/09/16 09:58:21;;;;;;;26.10;23.30;;;;;;;;;;5038978;28;20380;-84
2023/09/16 10:00:50;;;;;;;25.88;23.10;;;;;;;;;;5028459;28;20391;-84
2023/09/16 10:03:20;;;;;;;24.50;21.95;;;;;;;;;;5037167;28;20419;-84
2023/09/16 10:05:46;;;;;;;25.52;22.83;;;;;;;;;;5037574;28;20391;-84
2023/09/16 10:08:13;;;;;;;25.88;23.13;;;;;;;;;;5040266;28;20828;-84
2023/09/16 10:10:40;;;;;;;23.42;20.92;;;;;;;;;;5038952;28;20394;-83
2023/09/16 10:13:07;;;;;;;23.37;20.93;;;;;;;;;;5039293;28;20825;-84
2023/09/16 10:15:35;;;;;;;21.25;19.15;;;;;;;;;;5037463;28;20737;-84
2023/09/16 10:18:02;;;;;;;22.33;19.92;;;;;;;;;;5034148;28;20453;-84
2023/09/16 10:20:29;;;;;;;23.05;20.63;;;;;;;;;;5038246;28;20414;-84
2023/09/16 10:22:57;;;;;;;20.60;18.60;;;;;;;;;;5040143;28;20415;-84
2023/09/16 10:25:23;;;;;;;18.30;16.67;;;;;;;;;;5039292;28;20419;-84
2023/09/16 10:27:49;;;;;;;19.40;17.58;;;;;;;;;;5038756;28;20423;-84
2023/09/16 10:30:17;;;;;;;19.45;17.58;;;;;;;;;;5037434;28;20437;-83
2023/09/16 10:32:43;;;;;;;19.02;17.23;;;;;;;;;;5019306;28;20453;-84
2023/09/16 10:35:10;;;;;;;19.17;17.27;;;;;;;;;;5021402;28;20399;-84
2023/09/16 10:37:37;;;;;;;18.13;16.52;;;;;;;;;;5038898;28;20437;-84
2023/09/16 10:40:04;;;;;;;18.15;16.48;;;;;;;;;;5038074;28;20394;-84
2023/09/16 10:42:33;;;;;;;16.75;15.30;;;;;;;;;;5038590;28;20411;-84
2023/09/16 10:45:01;;;;;;;15.57;14.27;;;;;;;;;;5037234;28;20399;-84
2023/09/16 10:47:28;;;;;;;17.27;15.70;;;;;;;;;;5038897;28;20859;-84
2023/09/16 10:49:54;;;;;;;17.13;15.73;;;;;;;;;;5038131;28;20782;-83
2023/09/16 10:52:25;;;;;;;15.70;14.30;;;;;;;;;;5020257;28;20419;-84
2023/09/16 10:54:54;;;;;;;16.83;15.32;;;;;;;;;;5020295;28;20387;-84
2023/09/16 10:57:26;;;;;;;16.65;15.25;;;;;;;;;;5039053;28;20401;-84
2023/09/16 10:59:52;;;;;;;14.17;12.77;;;;;;;;;;5038364;28;20703;-84
2023/09/16 11:02:25;;;;;;;13.05;12.02;;;;;;;;;;5038172;28;20410;-84
2023/09/16 11:04:51;;;;;;;13.23;12.13;;;;;;;;;;5038521;28;20797;-84
2023/09/16 11:07:18;;;;;;;11.40;10.30;;;;;;;;;;5038451;28;20371;-84
2023/09/16 11:09:45;;;;;;;13.88;12.73;;;;;;;;;;5039300;28;20382;-83
2023/09/16 11:12:11;;;;;;;12.40;11.30;;;;;;;;;;5038121;28;20406;-83
2023/09/16 11:14:37;;;;;;;11.98;11.07;;;;;;;;;;5038705;28;20840;-83
2023/09/16 11:17:11;;;;;;;10.25;9.45;;;;;;;;;;5039808;28;20387;-83
2023/09/16 11:19:37;;;;;;;10.10;9.10;;;;;;;;;;5040272;28;20395;-83
2023/09/16 11:22:03;;;;;;;9.05;8.25;;;;;;;;;;5039321;28;20422;-83
2023/09/16 11:24:29;;;;;;;9.93;9.10;;;;;;;;;;5039860;28;20390;-83
2023/09/16 11:26:59;;;;;;;9.30;8.50;;;;;;;;;;5039303;28;20415;-83
2023/09/16 11:29:31;;;;;;;8.50;7.80;;;;;;;;;;5040101;28;20383;-83
2023/09/16 11:31:57;;;;;;;7.55;7.05;;;;;;;;;;5039195;28;20390;-83
2023/09/16 11:34:24;;;;;;;8.05;7.40;;;;;;;;;;5038429;28;20379;-83
2023/09/16 11:36:57;;;;;;;8.02;7.20;;;;;;;;;;5038018;28;20388;-84
2023/09/16 11:39:32;;;;;;;8.98;6.85;;;;;;;;;;5039024;28;20410;-85
2023/09/16 11:41:58;;;;;;;7.10;6.50;;;;;;;;;;5039248;28;20384;-83
2023/09/16 11:44:24;;;;;;;6.55;6.00;;;;;;;;;;5037172;28;20405;-83
2023/09/16 11:46:51;;;;;;;7.40;6.00;;;;;;;;;;5038686;28;20844;-83
2023/09/16 11:49:17;;;;;;;6.20;5.70;;;;;;;;;;5037879;28;20398;-83
2023/09/16 11:51:45;;;;;;;5.30;4.90;;;;;;;;;;5025355;28;20464;-83
2023/09/16 11:54:11;;;;;;;4.35;3.97;;;;;;;;;;5039569;28;20462;-83
2023/09/16 11:56:40;;;;;;;3.78;3.58;;;;;;;;;;5041838;28;20429;-84
2023/09/16 11:59:06;;;;;;;3.63;3.42;;;;;;;;;;5042203;28;20573;-85
2023/09/16 12:01:32;;;;;;;2.75;2.65;;;;;;;;;;5041072;28;20387;-85
2023/09/16 12:03:59;;;;;;;2.90;2.70;;;;;;;;;;5042370;28;20514;-85
2023/09/16 12:06:26;;;;;;;1.60;1.50;;;;;;;;;;5042119;28;20409;-85
2023/09/16 12:08:54;;;;;;;1.27;1.17;;;;;;;;;;5042495;28;20383;-85
2023/09/16 12:11:21;;;;;;;1.77;1.67;;;;;;;;;;5043330;28;20387;-85
2023/09/16 12:13:47;;;;;;;2.30;2.00;;;;;;;;;;5034747;28;20400;-85
2023/09/16 12:16:14;;;;;;;2.07;1.97;;;;;;;;;;5043030;28;20450;-85
2023/09/16 12:18:41;;;;;;;2.00;1.90;;;;;;;;;;5042611;28;20395;-84
2023/09/16 12:21:08;;;;;;;2.03;1.88;;;;;;;;;;5042269;28;20393;-84
2023/09/16 12:23:34;;;;;;;2.07;1.90;;;;;;;;;;5041602;28;20410;-85
2023/09/16 12:26:00;;;;;;;2.33;2.22;;;;;;;;;;5041346;28;20395;-85
2023/09/16 12:28:27;;;;;;;2.10;2.00;;;;;;;;;;5041312;28;20390;-85
2023/09/16 12:30:55;;;;;;;2.50;1.93;;;;;;;;;;5041056;28;20752;-85
2023/09/16 12:33:37;;;;;;;2.10;2.00;;;;;;;;;;5041303;28;20383;-85
2023/09/16 12:36:03;;;;;;;2.10;2.00;;;;;;;;;;5040947;28;20411;-85
2023/09/16 12:38:30;;;;;;;1.92;1.83;;;;;;;;;;5040419;28;20474;-85
2023/09/16 12:40:56;;;;;;;1.67;1.57;;;;;;;;;;5040949;28;20391;-85
2023/09/16 12:43:22;;;;;;;1.92;1.83;;;;;;;;;;5040714;28;20907;-85
2023/09/16 12:45:48;;;;;;;2.00;1.85;;;;;;;;;;5040543;28;20478;-85
2023/09/16 12:48:14;;;;;;;1.80;1.70;;;;;;;;;;5041674;28;20379;-85
2023/09/16 12:50:40;;;;;;;1.73;1.60;;;;;;;;;;5040876;28;20788;-85
2023/09/16 12:53:07;;;;;;;1.52;1.42;;;;;;;;;;5041645;28;20379;-85
2023/09/16 12:55:33;;;;;;;1.70;1.60;;;;;;;;;;5039786;28;20379;-85
2023/09/16 12:57:59;;;;;;;1.60;1.50;;;;;;;;;;5040590;28;20391;-85
2023/09/16 13:00:26;;;;;;;1.55;1.45;;;;;;;;;;5039125;28;20399;-85
2023/09/16 13:02:53;;;;;;;1.60;1.40;;;;;;;;;;5039984;28;20415;-85
2023/09/16 13:05:20;;;;;;;1.52;1.40;;;;;;;;;;5040696;28;20821;-85
2023/09/16 13:07:47;;;;;;;1.67;1.58;;;;;;;;;;5039497;28;20423;-85
2023/09/16 13:10:14;;;;;;;1.90;1.23;;;;;;;;;;5040300;28;20395;-84
2023/09/16 13:12:43;;;;;;;1.30;1.20;;;;;;;;;;5039148;28;20392;-85
2023/09/16 13:15:13;;;;;;;1.45;1.35;;;;;;;;;;5040193;28;20387;-84
2023/09/16 13:17:41;;;;;;;1.40;1.30;;;;;;;;;;5039858;28;20494;-85
2023/09/16 13:20:13;;;;;;;1.30;1.20;;;;;;;;;;5040088;28;20386;-85
2023/09/16 13:22:40;;;;;;;1.77;1.60;;;;;;;;;;5039221;28;20890;-85
2023/09/16 13:25:25;;;;;;;1.30;1.20;;;;;;;;;;5039046;28;20399;-85
2023/09/16 13:27:51;;;;;;;1.20;1.20;;;;;;;;;;5039885;28;20425;-85
2023/09/16 13:30:20;;;;;;;1.40;1.30;;;;;;;;;;5039386;28;20387;-85
2023/09/16 13:32:52;;;;;;;1.40;1.30;;;;;;;;;;5039321;28;20472;-85
2023/09/16 13:35:21;;;;;;;1.58;1.48;;;;;;;;;;5040267;28;20379;-85
2023/09/16 13:37:48;;;;;;;1.40;1.30;;;;;;;;;;5039414;28;20458;-83
2023/09/16 13:40:15;;;;;;;1.50;1.40;;;;;;;;;;5038551;28;20466;-83
2023/09/16 13:42:41;;;;;;;1.25;1.20;;;;;;;;;;5039069;28;20785;-83
2023/09/16 13:45:08;;;;;;;1.30;1.20;;;;;;;;;;5039875;28;20880;-83
2023/09/16 13:47:34;;;;;;;1.60;1.50;;;;;;;;;;5035948;28;20426;-83
2023/09/16 13:50:00;;;;;;;1.70;1.60;;;;;;;;;;5038294;28;20395;-83
2023/09/16 13:52:26;;;;;;;1.40;1.30;;;;;;;;;;5038342;28;20413;-85
2023/09/16 13:54:52;;;;;;;1.50;1.40;;;;;;;;;;5038824;28;20433;-85
2023/09/16 13:57:18;;;;;;;1.50;1.40;;;;;;;;;;5039409;28;20379;-85
2023/09/16 13:59:44;;;;;;;1.63;1.25;;;;;;;;;;5038828;28;20479;-83
2023/09/16 14:02:12;;;;;;;1.40;1.30;;;;;;;;;;5038858;28;20411;-83
2023/09/16 14:04:37;;;;;;;1.60;1.50;;;;;;;;;;5039056;28;20445;-83
2023/09/16 14:07:04;;;;;;;1.55;1.45;;;;;;;;;;5038971;28;20780;-83
2023/09/16 14:09:33;;;;;;;1.55;1.30;;;;;;;;;;5035949;28;20387;-83
2023/09/16 14:11:58;;;;;;;1.65;1.55;;;;;;;;;;5032572;28;20472;-83
2023/09/16 14:14:24;;;;;;;1.52;1.35;;;;;;;;;;5038659;28;20887;-83
2023/09/16 14:16:50;;;;;;;1.60;1.50;;;;;;;;;;5040375;28;20399;-83
2023/09/16 14:19:19;;;;;;;1.70;1.60;;;;;;;;;;5038831;28;20387;-83
2023/09/16 14:21:45;;;;;;;1.65;1.55;;;;;;;;;;5038835;28;20394;-83